sensor_id;sensor_type;location;lat;lon;timestamp;P1;durP1;ratioP1;P2;durP2;ratioP2
25758;SDS011;13604;52.496;13.456;2022-10-31T00:00:54;60.60;;;36.95;;
25758;SDS011;13604;52.496;13.456;2022-10-31T00:03:20;67.55;;;39.13;;
25758;SDS011;13604;52.496;13.456;2022-10-31T00:05:46;67.20;;;37.55;;
25758;SDS011;13604;52.496;13.456;2022-10-31T00:08:13;67.88;;;39.28;;
25758;SDS011;13604;52.496;13.456;2022-10-31T00:10:39;62.75;;;38.10;;
25758;SDS011;13604;52.496;13.456;2022-10-31T00:13:06;65.53;;;36.47;;
25758;SDS011;13604;52.496;13.456;2022-10-31T00:15:32;62.22;;;37.22;;
25758;SDS011;13604;52.496;13.456;2022-10-31T00:17:58;59.58;;;37.63;;
25758;SDS011;13604;52.496;13.456;2022-10-31T00:20:24;60.72;;;39.10;;
25758;SDS011;13604;52.496;13.456;2022-10-31T00:22:49;60.97;;;36.13;;
25758;SDS011;13604;52.496;13.456;2022-10-31T00:25:14;63.72;;;36.97;;
25758;SDS011;13604;52.496;13.456;2022-10-31T00:27:40;62.55;;;38.10;;
25758;SDS011;13604;52.496;13.456;2022-10-31T00:30:06;58.97;;;36.10;;
25758;SDS011;13604;52.496;13.456;2022-10-31T00:32:31;56.08;;;35.00;;
25758;SDS011;13604;52.496;13.456;2022-10-31T00:34:56;68.25;;;38.08;;
25758;SDS011;13604;52.496;13.456;2022-10-31T00:37:22;66.72;;;37.78;;
25758;SDS011;13604;52.496;13.456;2022-10-31T00:39:47;59.28;;;36.90;;
25758;SDS011;13604;52.496;13.456;2022-10-31T00:42:14;68.72;;;39.40;;
25758;SDS011;13604;52.496;13.456;2022-10-31T00:44:40;64.13;;;38.10;;
25758;SDS011;13604;52.496;13.456;2022-10-31T00:47:05;65.68;;;37.83;;
25758;SDS011;13604;52.496;13.456;2022-10-31T00:49:31;65.85;;;39.28;;
25758;SDS011;13604;52.496;13.456;2022-10-31T00:51:56;62.13;;;38.67;;
25758;SDS011;13604;52.496;13.456;2022-10-31T00:54:21;70.25;;;36.60;;
25758;SDS011;13604;52.496;13.456;2022-10-31T00:56:47;64.18;;;36.60;;
25758;SDS011;13604;52.496;13.456;2022-10-31T00:59:12;64.47;;;37.15;;
25758;SDS011;13604;52.496;13.456;2022-10-31T01:01:37;67.68;;;35.80;;
25758;SDS011;13604;52.496;13.456;2022-10-31T01:04:02;66.63;;;37.33;;
25758;SDS011;13604;52.496;13.456;2022-10-31T01:06:28;63.78;;;37.38;;
25758;SDS011;13604;52.496;13.456;2022-10-31T01:08:53;63.95;;;36.67;;
25758;SDS011;13604;52.496;13.456;2022-10-31T01:11:20;67.00;;;38.70;;
25758;SDS011;13604;52.496;13.456;2022-10-31T01:13:49;58.97;;;37.50;;
25758;SDS011;13604;52.496;13.456;2022-10-31T01:16:17;67.15;;;37.50;;
25758;SDS011;13604;52.496;13.456;2022-10-31T01:18:44;59.25;;;36.10;;
25758;SDS011;13604;52.496;13.456;2022-10-31T01:21:11;63.63;;;37.15;;
25758;SDS011;13604;52.496;13.456;2022-10-31T01:23:38;61.70;;;37.30;;
25758;SDS011;13604;52.496;13.456;2022-10-31T01:26:06;67.18;;;37.75;;
25758;SDS011;13604;52.496;13.456;2022-10-31T01:28:37;59.20;;;35.78;;
25758;SDS011;13604;52.496;13.456;2022-10-31T01:31:06;57.30;;;36.15;;
25758;SDS011;13604;52.496;13.456;2022-10-31T01:33:33;63.92;;;36.50;;
25758;SDS011;13604;52.496;13.456;2022-10-31T01:35:59;59.20;;;35.95;;
25758;SDS011;13604;52.496;13.456;2022-10-31T01:38:26;60.53;;;36.50;;
25758;SDS011;13604;52.496;13.456;2022-10-31T01:40:51;57.47;;;34.70;;
25758;SDS011;13604;52.496;13.456;2022-10-31T01:43:17;54.78;;;31.33;;
25758;SDS011;13604;52.496;13.456;2022-10-31T01:45:43;56.72;;;32.60;;
25758;SDS011;13604;52.496;13.456;2022-10-31T01:48:16;48.55;;;33.05;;
25758;SDS011;13604;52.496;13.456;2022-10-31T01:50:44;54.53;;;32.55;;
25758;SDS011;13604;52.496;13.456;2022-10-31T01:53:13;54.00;;;31.77;;
25758;SDS011;13604;52.496;13.456;2022-10-31T01:55:41;54.75;;;31.70;;
25758;SDS011;13604;52.496;13.456;2022-10-31T01:58:19;54.85;;;31.40;;
25758;SDS011;13604;52.496;13.456;2022-10-31T02:00:48;55.28;;;31.33;;
25758;SDS011;13604;52.496;13.456;2022-10-31T02:03:16;60.40;;;33.00;;
25758;SDS011;13604;52.496;13.456;2022-10-31T02:05:43;60.72;;;31.27;;
25758;SDS011;13604;52.496;13.456;2022-10-31T02:08:14;46.55;;;29.17;;
25758;SDS011;13604;52.496;13.456;2022-10-31T02:10:43;58.78;;;32.25;;
25758;SDS011;13604;52.496;13.456;2022-10-31T02:13:09;50.08;;;30.65;;
25758;SDS011;13604;52.496;13.456;2022-10-31T02:15:36;46.13;;;28.33;;
25758;SDS011;13604;52.496;13.456;2022-10-31T02:18:03;55.42;;;29.50;;
25758;SDS011;13604;52.496;13.456;2022-10-31T02:20:33;48.88;;;28.25;;
25758;SDS011;13604;52.496;13.456;2022-10-31T02:23:20;52.10;;;28.60;;
25758;SDS011;13604;52.496;13.456;2022-10-31T02:26:06;50.00;;;28.38;;
25758;SDS011;13604;52.496;13.456;2022-10-31T02:28:57;47.00;;;26.48;;
25758;SDS011;13604;52.496;13.456;2022-10-31T02:34:47;43.92;;;25.95;;
25758;SDS011;13604;52.496;13.456;2022-10-31T02:40:10;50.67;;;27.55;;
25758;SDS011;13604;52.496;13.456;2022-10-31T02:48:19;48.28;;;26.63;;
25758;SDS011;13604;52.496;13.456;2022-10-31T02:50:51;52.53;;;27.63;;
25758;SDS011;13604;52.496;13.456;2022-10-31T02:53:21;38.40;;;25.20;;
25758;SDS011;13604;52.496;13.456;2022-10-31T02:55:51;44.15;;;26.05;;
25758;SDS011;13604;52.496;13.456;2022-10-31T02:58:22;47.65;;;26.88;;
25758;SDS011;13604;52.496;13.456;2022-10-31T03:00:55;49.00;;;26.98;;
25758;SDS011;13604;52.496;13.456;2022-10-31T03:06:32;41.08;;;26.83;;
25758;SDS011;13604;52.496;13.456;2022-10-31T03:09:16;45.50;;;26.10;;
25758;SDS011;13604;52.496;13.456;2022-10-31T03:12:07;57.05;;;28.20;;
25758;SDS011;13604;52.496;13.456;2022-10-31T03:17:18;44.10;;;25.52;;
25758;SDS011;13604;52.496;13.456;2022-10-31T03:20:00;43.13;;;25.25;;
25758;SDS011;13604;52.496;13.456;2022-10-31T03:22:29;47.17;;;25.75;;
25758;SDS011;13604;52.496;13.456;2022-10-31T03:24:56;46.25;;;27.00;;
25758;SDS011;13604;52.496;13.456;2022-10-31T03:27:25;50.25;;;26.52;;
25758;SDS011;13604;52.496;13.456;2022-10-31T03:29:54;45.70;;;25.52;;
25758;SDS011;13604;52.496;13.456;2022-10-31T03:32:38;49.10;;;27.48;;
25758;SDS011;13604;52.496;13.456;2022-10-31T03:35:24;43.10;;;25.15;;
25758;SDS011;13604;52.496;13.456;2022-10-31T03:37:52;48.97;;;26.35;;
25758;SDS011;13604;52.496;13.456;2022-10-31T03:40:20;43.33;;;23.98;;
25758;SDS011;13604;52.496;13.456;2022-10-31T03:42:56;42.95;;;25.95;;
25758;SDS011;13604;52.496;13.456;2022-10-31T03:45:28;45.75;;;26.10;;
25758;SDS011;13604;52.496;13.456;2022-10-31T03:47:55;45.50;;;25.83;;
25758;SDS011;13604;52.496;13.456;2022-10-31T03:50:23;47.67;;;26.10;;
25758;SDS011;13604;52.496;13.456;2022-10-31T03:53:09;51.42;;;28.40;;
25758;SDS011;13604;52.496;13.456;2022-10-31T03:55:41;48.08;;;27.33;;
25758;SDS011;13604;52.496;13.456;2022-10-31T03:58:27;48.20;;;25.27;;
25758;SDS011;13604;52.496;13.456;2022-10-31T04:00:57;53.05;;;28.85;;
25758;SDS011;13604;52.496;13.456;2022-10-31T04:03:26;46.92;;;25.65;;
25758;SDS011;13604;52.496;13.456;2022-10-31T04:05:56;48.22;;;25.98;;
25758;SDS011;13604;52.496;13.456;2022-10-31T04:08:27;42.25;;;24.27;;
25758;SDS011;13604;52.496;13.456;2022-10-31T04:10:55;47.45;;;25.55;;
25758;SDS011;13604;52.496;13.456;2022-10-31T04:13:24;51.42;;;24.83;;
25758;SDS011;13604;52.496;13.456;2022-10-31T04:15:52;44.50;;;25.80;;
25758;SDS011;13604;52.496;13.456;2022-10-31T04:18:19;60.45;;;25.08;;
25758;SDS011;13604;52.496;13.456;2022-10-31T04:20:47;47.95;;;24.40;;
25758;SDS011;13604;52.496;13.456;2022-10-31T04:23:19;42.30;;;25.63;;
25758;SDS011;13604;52.496;13.456;2022-10-31T04:25:47;43.60;;;24.10;;
25758;SDS011;13604;52.496;13.456;2022-10-31T04:28:12;45.25;;;24.65;;
25758;SDS011;13604;52.496;13.456;2022-10-31T04:30:38;43.33;;;22.13;;
25758;SDS011;13604;52.496;13.456;2022-10-31T04:33:03;40.28;;;23.52;;
25758;SDS011;13604;52.496;13.456;2022-10-31T04:35:29;48.92;;;23.30;;
25758;SDS011;13604;52.496;13.456;2022-10-31T04:37:54;42.92;;;23.77;;
25758;SDS011;13604;52.496;13.456;2022-10-31T04:40:19;37.22;;;22.92;;
25758;SDS011;13604;52.496;13.456;2022-10-31T04:42:45;47.22;;;23.40;;
25758;SDS011;13604;52.496;13.456;2022-10-31T04:45:10;44.60;;;23.60;;
25758;SDS011;13604;52.496;13.456;2022-10-31T04:47:35;42.67;;;23.85;;
25758;SDS011;13604;52.496;13.456;2022-10-31T04:50:01;42.65;;;22.85;;
25758;SDS011;13604;52.496;13.456;2022-10-31T04:52:27;42.33;;;24.25;;
25758;SDS011;13604;52.496;13.456;2022-10-31T04:54:52;43.10;;;22.48;;
25758;SDS011;13604;52.496;13.456;2022-10-31T04:57:17;38.85;;;22.45;;
25758;SDS011;13604;52.496;13.456;2022-10-31T04:59:43;41.63;;;21.80;;
25758;SDS011;13604;52.496;13.456;2022-10-31T05:02:08;36.17;;;21.17;;
25758;SDS011;13604;52.496;13.456;2022-10-31T05:04:33;40.17;;;21.98;;
25758;SDS011;13604;52.496;13.456;2022-10-31T05:06:58;47.13;;;23.75;;
25758;SDS011;13604;52.496;13.456;2022-10-31T05:09:24;44.72;;;23.27;;
25758;SDS011;13604;52.496;13.456;2022-10-31T05:11:49;40.05;;;21.48;;
25758;SDS011;13604;52.496;13.456;2022-10-31T05:14:14;39.45;;;21.80;;
25758;SDS011;13604;52.496;13.456;2022-10-31T05:16:40;37.80;;;21.58;;
25758;SDS011;13604;52.496;13.456;2022-10-31T05:19:05;42.20;;;22.95;;
25758;SDS011;13604;52.496;13.456;2022-10-31T05:21:30;45.55;;;24.45;;
25758;SDS011;13604;52.496;13.456;2022-10-31T05:23:56;51.90;;;24.48;;
25758;SDS011;13604;52.496;13.456;2022-10-31T05:26:21;41.30;;;23.27;;
25758;SDS011;13604;52.496;13.456;2022-10-31T05:28:46;45.25;;;22.63;;
25758;SDS011;13604;52.496;13.456;2022-10-31T05:31:12;44.92;;;23.42;;
25758;SDS011;13604;52.496;13.456;2022-10-31T05:33:37;42.35;;;23.08;;
25758;SDS011;13604;52.496;13.456;2022-10-31T05:36:02;44.55;;;22.38;;
25758;SDS011;13604;52.496;13.456;2022-10-31T05:38:28;40.58;;;22.25;;
25758;SDS011;13604;52.496;13.456;2022-10-31T05:40:56;43.47;;;24.27;;
25758;SDS011;13604;52.496;13.456;2022-10-31T05:43:28;46.70;;;23.83;;
25758;SDS011;13604;52.496;13.456;2022-10-31T05:45:54;42.88;;;23.75;;
25758;SDS011;13604;52.496;13.456;2022-10-31T05:48:20;47.88;;;24.85;;
25758;SDS011;13604;52.496;13.456;2022-10-31T05:50:47;44.95;;;23.83;;
25758;SDS011;13604;52.496;13.456;2022-10-31T05:53:13;45.92;;;22.50;;
25758;SDS011;13604;52.496;13.456;2022-10-31T05:55:38;46.55;;;23.90;;
25758;SDS011;13604;52.496;13.456;2022-10-31T05:58:05;45.50;;;23.48;;
25758;SDS011;13604;52.496;13.456;2022-10-31T06:00:31;46.63;;;22.50;;
25758;SDS011;13604;52.496;13.456;2022-10-31T06:02:57;49.58;;;23.02;;
25758;SDS011;13604;52.496;13.456;2022-10-31T06:05:23;40.75;;;23.13;;
25758;SDS011;13604;52.496;13.456;2022-10-31T06:07:49;44.30;;;23.20;;
25758;SDS011;13604;52.496;13.456;2022-10-31T06:10:14;44.72;;;23.80;;
25758;SDS011;13604;52.496;13.456;2022-10-31T06:12:40;37.22;;;23.15;;
25758;SDS011;13604;52.496;13.456;2022-10-31T06:15:06;39.50;;;21.67;;
25758;SDS011;13604;52.496;13.456;2022-10-31T06:17:33;42.17;;;23.23;;
25758;SDS011;13604;52.496;13.456;2022-10-31T06:19:59;41.17;;;23.30;;
25758;SDS011;13604;52.496;13.456;2022-10-31T06:22:25;41.00;;;22.95;;
25758;SDS011;13604;52.496;13.456;2022-10-31T06:24:50;42.28;;;24.25;;
25758;SDS011;13604;52.496;13.456;2022-10-31T06:27:15;45.03;;;22.30;;
25758;SDS011;13604;52.496;13.456;2022-10-31T06:29:41;45.80;;;23.83;;
25758;SDS011;13604;52.496;13.456;2022-10-31T06:32:08;45.75;;;25.50;;
25758;SDS011;13604;52.496;13.456;2022-10-31T06:34:35;54.50;;;26.92;;
25758;SDS011;13604;52.496;13.456;2022-10-31T06:37:00;54.40;;;28.17;;
25758;SDS011;13604;52.496;13.456;2022-10-31T06:39:25;49.85;;;26.20;;
25758;SDS011;13604;52.496;13.456;2022-10-31T06:41:51;51.22;;;30.80;;
25758;SDS011;13604;52.496;13.456;2022-10-31T06:44:16;54.30;;;26.70;;
25758;SDS011;13604;52.496;13.456;2022-10-31T06:46:41;53.28;;;27.25;;
25758;SDS011;13604;52.496;13.456;2022-10-31T06:49:06;50.15;;;26.95;;
25758;SDS011;13604;52.496;13.456;2022-10-31T06:51:32;55.97;;;26.83;;
25758;SDS011;13604;52.496;13.456;2022-10-31T06:53:57;49.67;;;26.10;;
25758;SDS011;13604;52.496;13.456;2022-10-31T06:56:22;45.53;;;25.40;;
25758;SDS011;13604;52.496;13.456;2022-10-31T06:58:48;53.67;;;25.75;;
25758;SDS011;13604;52.496;13.456;2022-10-31T07:01:13;83.93;;;51.33;;
25758;SDS011;13604;52.496;13.456;2022-10-31T07:03:38;54.67;;;30.52;;
25758;SDS011;13604;52.496;13.456;2022-10-31T07:06:04;53.97;;;26.00;;
25758;SDS011;13604;52.496;13.456;2022-10-31T07:08:29;54.17;;;29.67;;
25758;SDS011;13604;52.496;13.456;2022-10-31T07:10:55;41.03;;;25.63;;
25758;SDS011;13604;52.496;13.456;2022-10-31T07:13:22;37.63;;;21.85;;
25758;SDS011;13604;52.496;13.456;2022-10-31T07:15:52;44.05;;;22.55;;
25758;SDS011;13604;52.496;13.456;2022-10-31T07:18:18;35.17;;;20.40;;
25758;SDS011;13604;52.496;13.456;2022-10-31T07:20:44;34.45;;;20.92;;
25758;SDS011;13604;52.496;13.456;2022-10-31T07:23:10;50.85;;;23.88;;
25758;SDS011;13604;52.496;13.456;2022-10-31T07:25:39;42.17;;;21.50;;
25758;SDS011;13604;52.496;13.456;2022-10-31T07:28:05;35.05;;;20.75;;
25758;SDS011;13604;52.496;13.456;2022-10-31T07:30:31;59.72;;;24.25;;
25758;SDS011;13604;52.496;13.456;2022-10-31T07:32:56;39.97;;;22.98;;
25758;SDS011;13604;52.496;13.456;2022-10-31T07:35:26;47.08;;;22.55;;
25758;SDS011;13604;52.496;13.456;2022-10-31T07:37:52;38.92;;;20.67;;
25758;SDS011;13604;52.496;13.456;2022-10-31T07:40:18;38.63;;;21.10;;
25758;SDS011;13604;52.496;13.456;2022-10-31T07:42:44;41.08;;;20.15;;
25758;SDS011;13604;52.496;13.456;2022-10-31T07:45:12;37.00;;;20.25;;
25758;SDS011;13604;52.496;13.456;2022-10-31T07:47:44;40.72;;;20.05;;
25758;SDS011;13604;52.496;13.456;2022-10-31T07:50:17;44.38;;;21.23;;
25758;SDS011;13604;52.496;13.456;2022-10-31T07:52:44;45.05;;;21.30;;
25758;SDS011;13604;52.496;13.456;2022-10-31T07:55:10;39.05;;;21.48;;
25758;SDS011;13604;52.496;13.456;2022-10-31T07:57:36;36.78;;;20.75;;
25758;SDS011;13604;52.496;13.456;2022-10-31T08:00:03;34.42;;;18.33;;
25758;SDS011;13604;52.496;13.456;2022-10-31T08:02:29;34.55;;;19.25;;
25758;SDS011;13604;52.496;13.456;2022-10-31T08:04:54;34.47;;;18.95;;
25758;SDS011;13604;52.496;13.456;2022-10-31T08:07:20;36.90;;;19.10;;
25758;SDS011;13604;52.496;13.456;2022-10-31T08:09:45;34.67;;;17.73;;
25758;SDS011;13604;52.496;13.456;2022-10-31T08:12:10;37.67;;;17.38;;
25758;SDS011;13604;52.496;13.456;2022-10-31T08:14:36;32.75;;;17.48;;
25758;SDS011;13604;52.496;13.456;2022-10-31T08:17:01;30.27;;;17.23;;
25758;SDS011;13604;52.496;13.456;2022-10-31T08:19:26;33.33;;;17.40;;
25758;SDS011;13604;52.496;13.456;2022-10-31T08:21:52;38.45;;;18.85;;
25758;SDS011;13604;52.496;13.456;2022-10-31T08:24:19;33.72;;;18.70;;
25758;SDS011;13604;52.496;13.456;2022-10-31T08:26:45;29.30;;;17.90;;
25758;SDS011;13604;52.496;13.456;2022-10-31T08:29:11;44.85;;;21.45;;
25758;SDS011;13604;52.496;13.456;2022-10-31T08:31:36;40.38;;;19.52;;
25758;SDS011;13604;52.496;13.456;2022-10-31T08:34:01;43.33;;;22.17;;
25758;SDS011;13604;52.496;13.456;2022-10-31T08:36:27;42.92;;;20.85;;
25758;SDS011;13604;52.496;13.456;2022-10-31T08:38:54;40.45;;;22.23;;
25758;SDS011;13604;52.496;13.456;2022-10-31T08:41:19;43.13;;;23.45;;
25758;SDS011;13604;52.496;13.456;2022-10-31T08:43:45;45.55;;;23.88;;
25758;SDS011;13604;52.496;13.456;2022-10-31T08:46:10;47.53;;;23.65;;
25758;SDS011;13604;52.496;13.456;2022-10-31T08:48:36;43.97;;;24.17;;
25758;SDS011;13604;52.496;13.456;2022-10-31T08:51:01;49.75;;;26.92;;
25758;SDS011;13604;52.496;13.456;2022-10-31T08:53:26;41.75;;;25.52;;
25758;SDS011;13604;52.496;13.456;2022-10-31T08:55:53;41.92;;;25.65;;
25758;SDS011;13604;52.496;13.456;2022-10-31T08:58:20;40.75;;;22.25;;
25758;SDS011;13604;52.496;13.456;2022-10-31T09:00:46;42.17;;;21.40;;
25758;SDS011;13604;52.496;13.456;2022-10-31T09:03:14;48.45;;;27.00;;
25758;SDS011;13604;52.496;13.456;2022-10-31T09:05:40;51.55;;;23.45;;
25758;SDS011;13604;52.496;13.456;2022-10-31T09:08:06;46.35;;;24.58;;
25758;SDS011;13604;52.496;13.456;2022-10-31T09:10:32;43.22;;;23.73;;
25758;SDS011;13604;52.496;13.456;2022-10-31T09:13:00;50.67;;;22.13;;
25758;SDS011;13604;52.496;13.456;2022-10-31T09:15:29;42.08;;;22.52;;
25758;SDS011;13604;52.496;13.456;2022-10-31T09:17:55;34.60;;;18.83;;
25758;SDS011;13604;52.496;13.456;2022-10-31T09:20:20;39.53;;;19.75;;
25758;SDS011;13604;52.496;13.456;2022-10-31T09:22:46;31.55;;;19.38;;
25758;SDS011;13604;52.496;13.456;2022-10-31T09:25:11;30.88;;;16.48;;
25758;SDS011;13604;52.496;13.456;2022-10-31T09:27:37;42.50;;;19.10;;
25758;SDS011;13604;52.496;13.456;2022-10-31T09:30:03;33.22;;;17.02;;
25758;SDS011;13604;52.496;13.456;2022-10-31T09:32:29;30.55;;;16.83;;
25758;SDS011;13604;52.496;13.456;2022-10-31T09:34:54;41.45;;;20.73;;
25758;SDS011;13604;52.496;13.456;2022-10-31T09:37:19;38.10;;;21.55;;
25758;SDS011;13604;52.496;13.456;2022-10-31T09:39:45;39.38;;;21.85;;
25758;SDS011;13604;52.496;13.456;2022-10-31T09:42:28;37.70;;;20.80;;
25758;SDS011;13604;52.496;13.456;2022-10-31T09:45:03;32.47;;;19.45;;
25758;SDS011;13604;52.496;13.456;2022-10-31T09:48:05;38.22;;;21.98;;
25758;SDS011;13604;52.496;13.456;2022-10-31T09:50:56;34.47;;;19.85;;
25758;SDS011;13604;52.496;13.456;2022-10-31T09:56:07;31.35;;;16.55;;
25758;SDS011;13604;52.496;13.456;2022-10-31T09:58:41;44.60;;;19.38;;
25758;SDS011;13604;52.496;13.456;2022-10-31T10:01:21;32.67;;;18.02;;
25758;SDS011;13604;52.496;13.456;2022-10-31T10:03:54;30.88;;;16.55;;
25758;SDS011;13604;52.496;13.456;2022-10-31T10:06:25;31.52;;;16.85;;
25758;SDS011;13604;52.496;13.456;2022-10-31T10:08:54;38.83;;;18.88;;
25758;SDS011;13604;52.496;13.456;2022-10-31T10:14:41;28.65;;;14.98;;
25758;SDS011;13604;52.496;13.456;2022-10-31T10:23:10;36.97;;;18.38;;
25758;SDS011;13604;52.496;13.456;2022-10-31T10:26:00;27.55;;;15.23;;
25758;SDS011;13604;52.496;13.456;2022-10-31T10:28:30;27.42;;;14.65;;
25758;SDS011;13604;52.496;13.456;2022-10-31T10:31:05;35.45;;;18.08;;
25758;SDS011;13604;52.496;13.456;2022-10-31T10:33:37;39.55;;;18.88;;
25758;SDS011;13604;52.496;13.456;2022-10-31T10:36:15;29.88;;;17.90;;
25758;SDS011;13604;52.496;13.456;2022-10-31T10:38:55;34.92;;;16.20;;
25758;SDS011;13604;52.496;13.456;2022-10-31T10:41:27;34.25;;;17.52;;
25758;SDS011;13604;52.496;13.456;2022-10-31T10:43:56;30.20;;;17.25;;
25758;SDS011;13604;52.496;13.456;2022-10-31T10:46:24;28.58;;;14.95;;
25758;SDS011;13604;52.496;13.456;2022-10-31T10:54:39;32.55;;;17.48;;
25758;SDS011;13604;52.496;13.456;2022-10-31T10:59:55;21.33;;;13.15;;
25758;SDS011;13604;52.496;13.456;2022-10-31T11:02:25;24.70;;;13.82;;
25758;SDS011;13604;52.496;13.456;2022-10-31T11:04:52;29.73;;;18.42;;
25758;SDS011;13604;52.496;13.456;2022-10-31T11:07:21;28.30;;;17.50;;
25758;SDS011;13604;52.496;13.456;2022-10-31T11:09:47;31.08;;;14.68;;
25758;SDS011;13604;52.496;13.456;2022-10-31T11:12:17;36.33;;;14.80;;
25758;SDS011;13604;52.496;13.456;2022-10-31T11:14:51;22.98;;;12.60;;
25758;SDS011;13604;52.496;13.456;2022-10-31T11:17:26;32.30;;;18.63;;
25758;SDS011;13604;52.496;13.456;2022-10-31T11:22:36;22.13;;;11.75;;
25758;SDS011;13604;52.496;13.456;2022-10-31T11:25:11;26.42;;;15.73;;
25758;SDS011;13604;52.496;13.456;2022-10-31T11:27:46;22.10;;;12.30;;
25758;SDS011;13604;52.496;13.456;2022-10-31T11:30:12;18.42;;;12.65;;
25758;SDS011;13604;52.496;13.456;2022-10-31T11:32:43;38.78;;;17.73;;
25758;SDS011;13604;52.496;13.456;2022-10-31T11:35:16;25.05;;;14.50;;
25758;SDS011;13604;52.496;13.456;2022-10-31T11:37:43;19.83;;;12.13;;
25758;SDS011;13604;52.496;13.456;2022-10-31T11:40:17;23.25;;;15.45;;
25758;SDS011;13604;52.496;13.456;2022-10-31T11:42:47;20.70;;;12.02;;
25758;SDS011;13604;52.496;13.456;2022-10-31T11:45:32;36.15;;;18.05;;
25758;SDS011;13604;52.496;13.456;2022-10-31T11:47:59;30.08;;;18.40;;
25758;SDS011;13604;52.496;13.456;2022-10-31T11:50:27;24.33;;;14.50;;
25758;SDS011;13604;52.496;13.456;2022-10-31T11:52:58;21.73;;;13.85;;
25758;SDS011;13604;52.496;13.456;2022-10-31T11:55:30;41.50;;;18.58;;
25758;SDS011;13604;52.496;13.456;2022-10-31T11:57:58;35.97;;;18.08;;
25758;SDS011;13604;52.496;13.456;2022-10-31T12:00:33;24.30;;;15.30;;
25758;SDS011;13604;52.496;13.456;2022-10-31T12:03:20;35.88;;;20.27;;
25758;SDS011;13604;52.496;13.456;2022-10-31T12:06:02;28.42;;;14.63;;
25758;SDS011;13604;52.496;13.456;2022-10-31T12:08:34;24.35;;;13.60;;
25758;SDS011;13604;52.496;13.456;2022-10-31T12:14:05;22.17;;;14.25;;
25758;SDS011;13604;52.496;13.456;2022-10-31T12:16:56;18.73;;;10.55;;
25758;SDS011;13604;52.496;13.456;2022-10-31T12:22:36;28.75;;;16.10;;
25758;SDS011;13604;52.496;13.456;2022-10-31T12:28:28;37.55;;;21.30;;
25758;SDS011;13604;52.496;13.456;2022-10-31T12:31:12;28.53;;;15.93;;
25758;SDS011;13604;52.496;13.456;2022-10-31T12:37:05;22.80;;;11.80;;
25758;SDS011;13604;52.496;13.456;2022-10-31T12:40:17;25.20;;;14.73;;
25758;SDS011;13604;52.496;13.456;2022-10-31T12:45:55;28.95;;;14.60;;
25758;SDS011;13604;52.496;13.456;2022-10-31T12:51:24;40.15;;;19.05;;
25758;SDS011;13604;52.496;13.456;2022-10-31T12:54:28;27.90;;;17.45;;
25758;SDS011;13604;52.496;13.456;2022-10-31T12:59:40;35.40;;;21.10;;
25758;SDS011;13604;52.496;13.456;2022-10-31T13:02:21;36.75;;;21.40;;
25758;SDS011;13604;52.496;13.456;2022-10-31T13:05:17;22.48;;;12.00;;
25758;SDS011;13604;52.496;13.456;2022-10-31T13:07:57;35.45;;;20.33;;
25758;SDS011;13604;52.496;13.456;2022-10-31T13:10:34;24.05;;;14.18;;
25758;SDS011;13604;52.496;13.456;2022-10-31T13:13:12;29.95;;;15.63;;
25758;SDS011;13604;52.496;13.456;2022-10-31T13:15:49;28.55;;;16.60;;
25758;SDS011;13604;52.496;13.456;2022-10-31T13:18:26;30.40;;;14.48;;
25758;SDS011;13604;52.496;13.456;2022-10-31T13:20:55;33.30;;;15.93;;
25758;SDS011;13604;52.496;13.456;2022-10-31T13:23:33;24.17;;;12.68;;
25758;SDS011;13604;52.496;13.456;2022-10-31T13:26:10;25.85;;;15.38;;
25758;SDS011;13604;52.496;13.456;2022-10-31T13:28:43;21.65;;;12.68;;
25758;SDS011;13604;52.496;13.456;2022-10-31T13:31:12;29.63;;;16.55;;
25758;SDS011;13604;52.496;13.456;2022-10-31T13:33:39;33.45;;;20.25;;
25758;SDS011;13604;52.496;13.456;2022-10-31T13:38:54;21.73;;;12.63;;
25758;SDS011;13604;52.496;13.456;2022-10-31T13:41:35;30.05;;;16.70;;
25758;SDS011;13604;52.496;13.456;2022-10-31T13:46:36;28.55;;;15.48;;
25758;SDS011;13604;52.496;13.456;2022-10-31T13:51:53;29.63;;;16.23;;
25758;SDS011;13604;52.496;13.456;2022-10-31T13:54:33;26.48;;;14.30;;
25758;SDS011;13604;52.496;13.456;2022-10-31T13:57:00;32.90;;;18.30;;
25758;SDS011;13604;52.496;13.456;2022-10-31T13:59:26;32.15;;;15.20;;
25758;SDS011;13604;52.496;13.456;2022-10-31T14:02:00;44.85;;;22.40;;
25758;SDS011;13604;52.496;13.456;2022-10-31T14:04:37;37.40;;;20.20;;
25758;SDS011;13604;52.496;13.456;2022-10-31T14:07:14;37.08;;;18.83;;
25758;SDS011;13604;52.496;13.456;2022-10-31T14:12:30;28.42;;;15.13;;
25758;SDS011;13604;52.496;13.456;2022-10-31T14:15:04;23.10;;;13.30;;
25758;SDS011;13604;52.496;13.456;2022-10-31T14:17:44;35.05;;;19.98;;
25758;SDS011;13604;52.496;13.456;2022-10-31T14:20:26;30.80;;;15.80;;
25758;SDS011;13604;52.496;13.456;2022-10-31T14:22:58;35.53;;;16.27;;
25758;SDS011;13604;52.496;13.456;2022-10-31T14:27:53;32.60;;;16.40;;
25758;SDS011;13604;52.496;13.456;2022-10-31T14:30:21;33.47;;;16.77;;
25758;SDS011;13604;52.496;13.456;2022-10-31T14:32:49;34.40;;;16.85;;
25758;SDS011;13604;52.496;13.456;2022-10-31T14:35:51;26.90;;;14.90;;
25758;SDS011;13604;52.496;13.456;2022-10-31T14:38:56;26.63;;;14.80;;
25758;SDS011;13604;52.496;13.456;2022-10-31T14:52:32;30.85;;;18.00;;
25758;SDS011;13604;52.496;13.456;2022-10-31T14:55:01;46.17;;;21.65;;
25758;SDS011;13604;52.496;13.456;2022-10-31T14:57:32;40.80;;;21.52;;
25758;SDS011;13604;52.496;13.456;2022-10-31T15:00:05;49.17;;;27.23;;
25758;SDS011;13604;52.496;13.456;2022-10-31T15:02:39;51.05;;;30.08;;
25758;SDS011;13604;52.496;13.456;2022-10-31T15:05:14;54.75;;;29.15;;
25758;SDS011;13604;52.496;13.456;2022-10-31T15:08:01;51.25;;;29.80;;
25758;SDS011;13604;52.496;13.456;2022-10-31T15:10:32;57.65;;;26.15;;
25758;SDS011;13604;52.496;13.456;2022-10-31T15:13:13;48.25;;;26.55;;
25758;SDS011;13604;52.496;13.456;2022-10-31T15:15:43;47.22;;;26.23;;
25758;SDS011;13604;52.496;13.456;2022-10-31T15:18:13;47.58;;;26.40;;
25758;SDS011;13604;52.496;13.456;2022-10-31T15:20:43;55.85;;;28.75;;
25758;SDS011;13604;52.496;13.456;2022-10-31T15:23:10;50.63;;;26.50;;
25758;SDS011;13604;52.496;13.456;2022-10-31T15:25:46;52.92;;;27.50;;
25758;SDS011;13604;52.496;13.456;2022-10-31T15:28:16;50.15;;;29.10;;
25758;SDS011;13604;52.496;13.456;2022-10-31T15:30:51;50.47;;;28.35;;
25758;SDS011;13604;52.496;13.456;2022-10-31T15:33:19;52.83;;;27.27;;
25758;SDS011;13604;52.496;13.456;2022-10-31T15:35:54;52.65;;;29.10;;
25758;SDS011;13604;52.496;13.456;2022-10-31T15:38:21;59.72;;;30.40;;
25758;SDS011;13604;52.496;13.456;2022-10-31T15:40:54;60.72;;;31.85;;
25758;SDS011;13604;52.496;13.456;2022-10-31T15:43:22;62.03;;;31.83;;
25758;SDS011;13604;52.496;13.456;2022-10-31T15:45:48;57.50;;;31.40;;
25758;SDS011;13604;52.496;13.456;2022-10-31T15:48:17;56.08;;;32.70;;
25758;SDS011;13604;52.496;13.456;2022-10-31T15:50:47;57.70;;;32.25;;